Data for 10/30/2018

Time Sea-Level Adjusted Pressure Absolute Pressure Temperature Relative Humidity Dew Point   
(mb) (inHg) (mb) (inHg) (C) (F) (%) (C) (F)
00:05 1021 30.15 850 25.1 1.2 34.1 76 -2.5 27.4
00:10 1021 30.15 850 25.1 1.4 34.5 76 -2.4 27.7
00:15 1021 30.15 850 25.1 1.6 34.8 75 -2.4 27.7
00:20 1021 30.15 850 25.1 1.8 35.2 75 -2.1 28.1
00:25 1021 30.15 850 25.1 1.5 34.8 77 -2.1 28.3
00:30 1021 30.15 850 25.1 0.9 33.6 80 -2.2 28
00:35 1021 30.15 850 25.1 0.6 33.2 80 -2.4 27.7
00:40 1021 30.15 850 25.1 0.7 33.2 80 -2.5 27.6
00:45 1021 30.15 850 25.1 0.6 33 79 -2.6 27.3
00:50 1021 30.15 850 25.1 0.5 33 79 -2.7 27.2
00:55 1021 30.15 850 25.1 0.6 33.1 81 -2.3 27.8
01:00 1021 30.15 850 25.1 0.6 33.1 83 -2 28.4
01:05 1021 30.15 850 25.1 0.1 32.3 85 -2 28.3
01:10 1021 30.15 850 25.1 -0 32 86 -2.1 28.2
01:15 1021 30.15 850 25.1 0.1 32.3 84 -2.2 28
01:20 1021 30.15 850 25.1 0.3 32.6 83 -2.2 28
01:25 1021 30.15 850 25.1 0.5 32.8 82 -2.2 28
01:30 1021 30.15 850 25.1 0.6 33.1 79 -2.6 27.4
01:35 1021 30.15 851 25.13 0.6 33.1 79 -2.7 27.2
01:40 1021 30.15 851 25.13 0.5 32.9 80 -2.6 27.4
01:45 1021 30.15 851 25.13 0.4 32.8 80 -2.6 27.3
01:50 1021 30.15 851 25.13 0.4 32.6 81 -2.6 27.3
01:55 1022 30.18 851 25.13 0.3 32.6 81 -2.6 27.4
02:00 1022 30.18 851 25.13 0.4 32.7 80 -2.6 27.3
02:05 1022 30.18 851 25.13 0.5 32.9 79 -2.7 27.2
02:10 1022 30.18 851 25.13 0.6 33.1 78 -2.8 27
02:15 1022 30.18 851 25.13 0.7 33.2 78 -2.8 27
02:20 1022 30.18 851 25.13 0.7 33.3 77 -2.9 26.8
02:25 1022 30.18 851 25.13 0.7 33.3 77 -2.9 26.8
02:30 1022 30.18 851 25.13 0.9 33.6 76 -2.9 26.8
02:35 1022 30.18 851 25.13 0.9 33.7 75 -2.9 26.7
02:40 1022 30.18 851 25.13 1.1 33.9 74 -3 26.6
02:45 1022 30.18 851 25.13 1.1 34 75 -2.8 26.9
02:50 1022 30.18 851 25.13 1 33.9 76 -2.7 27.2
02:55 1022 30.18 851 25.13 1 33.7 76 -2.8 27
03:00 1022 30.18 851 25.13 1 33.7 77 -2.7 27.2
03:05 1022 30.18 851 25.13 0.9 33.7 77 -2.6 27.3
03:10 1022 30.18 851 25.13 0.9 33.6 77 -2.7 27.1
03:15 1022 30.18 851 25.13 0.9 33.6 76 -2.9 26.9
03:20 1022 30.18 851 25.13 0.9 33.6 75 -3 26.6
03:25 1022 30.18 851 25.13 0.9 33.7 76 -2.9 26.8
03:30 1021 30.15 851 25.13 0.9 33.6 75 -3 26.7
03:35 1021 30.15 851 25.13 1 33.8 74 -3.1 26.4
03:40 1021 30.15 851 25.13 1.1 33.9 74 -3.1 26.5
03:45 1021 30.15 851 25.13 1 33.8 75 -3 26.7
03:50 1021 30.15 851 25.13 1 33.8 72 -3.4 25.9
03:55 1021 30.15 851 25.13 1.2 34.2 71 -3.5 25.7
04:00 1021 30.15 851 25.13 1.3 34.3 71 -3.4 25.8
04:05 1021 30.15 851 25.13 1.4 34.4 71 -3.4 25.8
04:10 1021 30.15 851 25.13 1.4 34.5 70 -3.5 25.6
04:15 1021 30.15 851 25.13 1.5 34.7 68 -3.7 25.3
04:20 1022 30.18 851 25.13 1.7 35 68 -3.7 25.4
04:25 1022 30.18 851 25.13 1.4 34.6 76 -2.3 27.8
04:30 1022 30.18 851 25.13 0.8 33.4 80 -2.4 27.8
04:35 1022 30.18 851 25.13 0.6 33 81 -2.4 27.7
04:40 1022 30.18 851 25.13 0.4 32.8 82 -2.3 27.8
04:45 1022 30.18 851 25.13 0.4 32.6 82 -2.3 27.8
04:50 1022 30.18 851 25.13 0.3 32.6 81 -2.6 27.3
04:55 1022 30.18 851 25.13 0.4 32.8 80 -2.6 27.4
05:00 1022 30.18 851 25.13 0.6 33.1 77 -2.9 26.8
05:05 1022 30.18 851 25.13 1 33.7 74 -3.2 26.2
05:10 1022 30.18 851 25.13 1.3 34.3 70 -3.7 25.3
05:15 1022 30.18 851 25.13 1.6 34.9 66 -4.1 24.5
05:20 1022 30.18 851 25.13 1.8 35.3 67 -3.7 25.4
05:25 1022 30.18 851 25.13 1.7 35.1 75 -2.2 28.1
05:30 1022 30.18 851 25.13 1 33.8 78 -2.5 27.6
05:35 1022 30.18 851 25.13 0.9 33.6 77 -2.6 27.3
05:40 1022 30.18 851 25.13 1 33.7 76 -2.8 27
05:45 1022 30.18 851 25.13 1.1 33.9 75 -2.9 26.7
05:50 1022 30.18 851 25.13 1.1 34.1 78 -2.4 27.8
05:55 1022 30.18 851 25.13 0.8 33.5 79 -2.4 27.7
06:00 1022 30.18 851 25.13 0.9 33.6 78 -2.6 27.3
06:05 1022 30.18 851 25.13 1 33.8 77 -2.5 27.5
06:10 1022 30.18 851 25.13 1.1 33.9 77 -2.5 27.5
06:15 1022 30.18 851 25.13 1.1 33.9 75 -2.8 26.9
06:20 1022 30.18 851 25.13 1.2 34.2 77 -2.5 27.6
06:25 1022 30.18 851 25.13 1.2 34.1 77 -2.4 27.7
06:30 1022 30.18 851 25.13 1 33.8 79 -2.3 27.9
06:35 1022 30.18 851 25.13 0.9 33.6 80 -2.1 28.2
06:40 1022 30.18 851 25.13 0.8 33.5 81 -2.1 28.3
06:45 1022 30.18 851 25.13 0.8 33.5 81 -2.1 28.3
06:50 1022 30.18 851 25.13 0.7 33.3 82 -2 28.4
06:55 1022 30.18 851 25.13 0.7 33.3 82 -2 28.4
07:00 1022 30.18 851 25.13 0.7 33.3 82 -2 28.4
07:05 1022 30.18 851 25.13 0.7 33.3 80 -2.3 27.8
07:10 1022 30.18 851 25.13 0.6 33.1 82 -2.1 28.3
07:15 1022 30.18 851 25.13 0.3 32.6 83 -2.2 28.1
07:20 1022 30.18 851 25.13 0.3 32.5 84 -2.1 28.2
07:25 1022 30.18 851 25.13 0.4 32.7 81 -2.6 27.4
07:30 1022 30.18 852 25.16 0.7 33.3 80 -2.4 27.7
07:35 1022 30.18 852 25.16 0.9 33.6 81 -2.1 28.3
07:40 1022 30.18 852 25.16 0.8 33.4 79 -2.4 27.7
07:45 1022 30.18 852 25.16 0.9 33.6 79 -2.3 27.8
07:50 1023 30.21 852 25.16 0.9 33.6 80 -2.2 28.1
07:55 1023 30.21 852 25.16 0.8 33.5 80 -2.3 27.9
08:00 1023 30.21 852 25.16 0.9 33.7 77 -2.6 27.3
08:05 1023 30.21 852 25.16 1.2 34.2 75 -2.8 27
08:10 1023 30.21 852 25.16 1.5 34.6 73 -2.9 26.8
08:15 1023 30.21 852 25.16 1.6 34.9 72 -2.8 26.9
08:20 1023 30.21 852 25.16 1.6 34.9 73 -2.7 27.1
08:25 1023 30.21 852 25.16 1.6 34.9 69 -3.4 25.9
08:30 1023 30.21 852 25.16 1.7 35 69 -3.4 25.8
08:35 1023 30.21 852 25.16 1.7 35 69 -3.3 26
08:40 1023 30.21 852 25.16 1.6 34.9 70 -3.3 26
08:45 1023 30.21 852 25.16 1.7 35 69 -3.5 25.7
08:50 1023 30.21 852 25.16 1.9 35.3 69 -3.3 26.1
08:55 1023 30.21 852 25.16 2.1 35.8 67 -3.4 26
09:00 1023 30.21 852 25.16 2.4 36.3 66 -3.4 25.8
09:05 1023 30.21 852 25.16 2.6 36.8 64 -3.4 25.8
09:10 1023 30.21 852 25.16 2.6 36.7 65 -3.4 26
09:15 1023 30.21 852 25.16 2.6 36.7 63 -3.8 25.1
09:20 1023 30.21 852 25.16 2.6 36.6 64 -3.6 25.5
09:25 1023 30.21 852 25.16 2.5 36.6 63 -3.9 25
09:30 1023 30.21 852 25.16 2.7 36.9 60 -4.2 24.4
09:35 1023 30.21 852 25.16 3.7 38.7 57 -4.1 24.7
09:40 1023 30.21 852 25.16 4.2 39.6 56 -3.8 25.1
09:45 1023 30.21 852 25.16 4 39.3 57 -3.7 25.4
09:50 1023 30.21 852 25.16 3.8 38.8 59 -3.5 25.6
09:55 1023 30.21 852 25.16 3.4 38.2 60 -3.6 25.5
10:00 1023 30.21 852 25.16 3.5 38.3 59 -3.8 25.2
10:05 1023 30.21 852 25.16 3.5 38.3 56 -4.4 24.1
10:10 1023 30.21 852 25.16 3.4 38 57 -4.3 24.3
10:15 1023 30.21 852 25.16 3.3 38 59 -4 24.9
10:20 1023 30.21 852 25.16 3.4 38.1 60 -3.7 25.3
10:25 1023 30.21 852 25.16 3.8 38.9 57 -3.8 25.1
10:30 1023 30.21 852 25.16 4.3 39.7 55 -3.9 24.9
10:35 1023 30.21 852 25.16 4.4 39.9 55 -3.9 25
10:40 1023 30.21 852 25.16 4.3 39.8 55 -4 24.8
10:45 1023 30.21 852 25.16 4.5 40.1 55 -3.8 25.2
10:50 1023 30.21 852 25.16 4.8 40.6 53 -4.1 24.6
10:55 1023 30.21 852 25.16 5.1 41.1 50 -4.4 24.2
11:00 1023 30.21 852 25.16 5.5 41.9 51 -3.8 25.2
11:05 1023 30.21 852 25.16 5.3 41.5 50 -4.2 24.4
11:10 1023 30.21 852 25.16 5.2 41.4 50 -4.2 24.4
11:15 1023 30.21 852 25.16 5 41 51 -4.3 24.3
11:20 1023 30.21 852 25.16 4.7 40.5 49 -5 23
11:25 1023 30.21 852 25.16 4.6 40.2 51 -4.6 23.6
11:30 1023 30.21 852 25.16 4.7 40.4 50 -4.9 23.2
11:35 1023 30.21 852 25.16 4.7 40.5 51 -4.7 23.6
11:40 1023 30.21 852 25.16 5 40.9 49 -4.9 23.2
11:45 1023 30.21 852 25.16 4.9 40.8 51 -4.4 24.1
11:50 1023 30.21 852 25.16 5 41.1 48 -5.1 22.7
11:55 1023 30.21 852 25.16 5.2 41.3 49 -4.8 23.4
12:00 1023 30.21 852 25.16 5 40.9 47 -5.4 22.4
12:05 1023 30.21 852 25.16 5 40.9 46 -5.7 21.8
12:10 1023 30.21 852 25.16 4.9 40.8 49 -5 22.9
12:15 1023 30.21 852 25.16 5 41.1 49 -4.8 23.4
12:20 1023 30.21 852 25.16 5.1 41.2 48 -5.1 22.9
12:25 1023 30.21 852 25.16 5 41 53 -3.7 25.4
12:30 1023 30.21 852 25.16 4.1 39.4 56 -3.9 24.9
12:35 1023 30.21 852 25.16 4.1 39.4 54 -4.4 24.1
12:40 1023 30.21 852 25.16 4.1 39.4 55 -4.1 24.6
12:45 1023 30.21 852 25.16 3.7 38.7 58 -3.8 25.2
12:50 1023 30.21 852 25.16 3.7 38.7 58 -3.7 25.3
12:55 1023 30.21 852 25.16 4.2 39.5 57 -3.6 25.5
13:00 1023 30.21 852 25.16 4.2 39.6 54 -4.2 24.5
13:05 1023 30.21 852 25.16 4.1 39.3 53 -4.6 23.8
13:10 1022 30.18 852 25.16 4.3 39.8 52 -4.6 23.8
13:15 1022 30.18 852 25.16 4.5 40.1 54 -4 24.8
13:20 1022 30.18 852 25.16 4.9 40.8 50 -4.5 23.8
13:25 1022 30.18 852 25.16 4.6 40.3 51 -4.7 23.5
13:30 1022 30.18 852 25.16 4.6 40.2 49 -5.2 22.7
13:35 1022 30.18 851 25.13 5 40.9 49 -4.9 23.1
13:40 1022 30.18 851 25.13 5.3 41.5 49 -4.5 23.8
13:45 1022 30.18 851 25.13 5.3 41.6 45 -5.5 22.1
13:50 1022 30.18 851 25.13 5.3 41.5 44 -6.2 20.9
13:55 1022 30.18 851 25.13 5.3 41.6 43 -6.3 20.6
14:00 1022 30.18 851 25.13 5.5 41.9 40 -7 19.4
14:05 1022 30.18 851 25.13 5.7 42.3 42 -6.3 20.7
14:10 1022 30.18 851 25.13 6.1 43 39 -6.8 19.7
14:15 1022 30.18 851 25.13 6.5 43.7 37 -7 19.4
14:20 1022 30.18 851 25.13 6.8 44.3 33 -8.1 17.3
14:25 1022 30.18 851 25.13 6.5 43.8 34 -8.1 17.4
14:30 1022 30.18 851 25.13 6.2 43.2 35 -8 17.5
14:35 1022 30.18 851 25.13 6.8 44.3 30 -9.5 14.9
14:40 1022 30.18 851 25.13 6.9 44.4 33 -8.3 17
14:45 1022 30.18 851 25.13 6.6 43.8 36 -7.6 18.3
14:50 1022 30.18 851 25.13 6.6 43.8 33 -8.7 16.4
14:55 1022 30.18 851 25.13 6.8 44.2 31 -9 15.8
15:00 1022 30.18 851 25.13 6.5 43.7 32 -8.9 16
15:05 1022 30.18 851 25.13 6.6 44 32 -8.9 16.1
15:10 1022 30.18 851 25.13 6.5 43.8 33 -8.7 16.3
15:15 1022 30.18 851 25.13 6.6 43.8 33 -8.4 16.9
15:20 1022 30.18 851 25.13 6.3 43.4 34 -8.6 16.5
15:25 1022 30.18 851 25.13 6.1 43 35 -8.2 17.2
15:30 1022 30.18 851 25.13 6.1 43 35 -8.2 17.3
15:35 1022 30.18 851 25.13 6.2 43.2 35 -8 17.7
15:40 1022 30.18 851 25.13 6.3 43.4 36 -7.7 18.2
15:45 1022 30.18 851 25.13 6.6 43.9 33 -8.4 16.9
15:50 1022 30.18 851 25.13 6.5 43.7 36 -7.7 18.2
15:55 1022 30.18 851 25.13 6.1 42.9 36 -7.8 17.9
16:00 1022 30.18 851 25.13 5.9 42.6 37 -7.8 18
16:05 1022 30.18 851 25.13 5.7 42.3 38 -7.5 18.4
16:10 1022 30.18 851 25.13 5.6 42.2 40 -7.1 19.3
16:15 1022 30.18 851 25.13 5.7 42.2 39 -7.2 19.1
16:20 1022 30.18 851 25.13 5.6 42 40 -7.1 19.3
16:25 1022 30.18 851 25.13 5.6 42 40 -7 19.4
16:30 1022 30.18 851 25.13 5.4 41.7 41 -6.7 19.9
16:35 1022 30.18 851 25.13 5.3 41.5 41 -6.8 19.7
16:40 1022 30.18 851 25.13 5.2 41.4 43 -6.4 20.4
16:45 1022 30.18 851 25.13 5.2 41.3 43 -6.4 20.4
16:50 1022 30.18 851 25.13 5.1 41.2 42 -6.7 20
16:55 1022 30.18 852 25.16 5.1 41.2 44 -6.2 20.8
17:00 1022 30.18 852 25.16 5 41 44 -6.3 20.7
17:05 1022 30.18 852 25.16 5 40.9 43 -6.5 20.4
17:10 1022 30.18 851 25.13 4.9 40.8 44 -6.3 20.7
17:15 1022 30.18 851 25.13 4.7 40.5 43 -6.7 19.9
17:20 1022 30.18 851 25.13 4.6 40.3 44 -6.7 19.9
17:25 1022 30.18 851 25.13 4.5 40 43 -7 19.5
17:30 1022 30.18 851 25.13 4.4 39.9 44 -6.9 19.7
17:35 1022 30.18 851 25.13 4.4 39.9 42 -7.3 18.8
17:40 1022 30.18 851 25.13 4.4 39.9 43 -7 19.4
17:45 1022 30.18 851 25.13 4.3 39.7 46 -6.3 20.7
17:50 1022 30.18 851 25.13 3.9 39.1 48 -6.1 21.1
17:55 1022 30.18 851 25.13 3.7 38.7 49 -6 21.1
18:00 1022 30.18 851 25.13 3.5 38.3 49 -6.1 20.9
18:05 1022 30.18 851 25.13 3.5 38.3 50 -6 21.2
18:10 1022 30.18 851 25.13 3.4 38 49 -6.3 20.6
18:15 1022 30.18 851 25.13 3.3 38 49 -6.4 20.4
18:20 1022 30.18 851 25.13 3.3 38 48 -6.6 20.1
18:25 1022 30.18 852 25.16 3.3 37.9 48 -6.8 19.8
18:30 1022 30.18 852 25.16 3.4 38 47 -6.8 19.8
18:35 1022 30.18 852 25.16 3.3 37.9 49 -6.5 20.3
18:40 1022 30.18 852 25.16 3.1 37.6 49 -6.4 20.4
18:45 1022 30.18 852 25.16 3.1 37.6 50 -6.3 20.6
18:50 1022 30.18 852 25.16 3 37.4 51 -6.2 20.8
18:55 1022 30.18 852 25.16 2.9 37.3 51 -6.3 20.6
19:00 1023 30.21 852 25.16 3 37.4 51 -6.3 20.7
19:05 1023 30.21 852 25.16 3 37.4 51 -6.1 21
19:10 1023 30.21 852 25.16 3.1 37.6 51 -6.2 20.9
19:15 1023 30.21 852 25.16 3.2 37.7 51 -6.1 21
19:20 1023 30.21 852 25.16 3.2 37.7 51 -6 21.3
19:25 1023 30.21 852 25.16 3.1 37.6 51 -6 21.2
19:30 1023 30.21 852 25.16 3 37.4 51 -6.1 20.9
19:35 1023 30.21 852 25.16 3.1 37.5 51 -6 21.1
19:40 1023 30.21 852 25.16 3.2 37.7 49 -6.4 20.5
19:45 1023 30.21 852 25.16 3.2 37.8 50 -6.3 20.7
19:50 1023 30.21 852 25.16 3.2 37.7 50 -6.3 20.7
19:55 1023 30.21 852 25.16 3.2 37.8 49 -6.4 20.5
20:00 1023 30.21 852 25.16 3.3 37.9 50 -6.2 20.9
20:05 1023 30.21 852 25.16 3.2 37.8 50 -6.3 20.7
20:10 1023 30.21 852 25.16 3.1 37.6 51 -6.1 21
20:15 1023 30.21 852 25.16 3.1 37.5 51 -6 21.2
20:20 1023 30.21 852 25.16 3 37.4 56 -4.9 23.2
20:25 1023 30.21 852 25.16 2.9 37.3 53 -5.7 21.7
20:30 1023 30.21 852 25.16 2.9 37.2 51 -6.2 20.8
20:35 1023 30.21 852 25.16 2.9 37.3 51 -6.1 21
20:40 1023 30.21 852 25.16 2.9 37.2 52 -6.1 21.1
20:45 1023 30.21 852 25.16 2.8 37.1 52 -6 21.2
20:50 1023 30.21 852 25.16 2.7 36.9 53 -5.8 21.5
20:55 1023 30.21 852 25.16 2.5 36.6 54 -5.9 21.3
21:00 1023 30.21 852 25.16 2.4 36.4 54 -6 21.3
21:05 1023 30.21 852 25.16 2.3 36.2 53 -6.2 20.8
21:10 1023 30.21 852 25.16 2.3 36.1 53 -6.2 20.8
21:15 1023 30.21 852 25.16 2.3 36.2 53 -6.4 20.5
21:20 1023 30.21 852 25.16 2.2 36 53 -6.3 20.7
21:25 1023 30.21 852 25.16 2.1 35.7 53 -6.4 20.4
21:30 1023 30.21 852 25.16 2 35.7 53 -6.5 20.3
21:35 1023 30.21 852 25.16 2 35.6 54 -6.4 20.5
21:40 1023 30.21 852 25.16 2 35.6 54 -6.3 20.6
21:45 1023 30.21 852 25.16 2 35.6 54 -6.4 20.5
21:50 1023 30.21 852 25.16 2.1 35.9 54 -6.3 20.7
21:55 1023 30.21 852 25.16 2.2 35.9 54 -6.3 20.7
22:00 1023 30.21 852 25.16 2.1 35.8 54 -6.2 20.8
22:05 1023 30.21 852 25.16 2.1 35.9 54 -6.2 20.8
22:10 1023 30.21 852 25.16 2.2 35.9 55 -5.9 21.4
22:15 1023 30.21 852 25.16 2.1 35.8 56 -5.7 21.8
22:20 1023 30.21 852 25.16 2.1 35.9 56 -5.8 21.5
22:25 1023 30.21 852 25.16 2 35.6 57 -5.7 21.7
22:30 1023 30.21 852 25.16 1.8 35.3 57 -5.8 21.6
22:35 1023 30.21 852 25.16 1.9 35.4 58 -5.6 21.9
22:40 1023 30.21 852 25.16 1.9 35.5 58 -5.6 22
22:45 1023 30.21 852 25.16 2.1 35.7 53 -6.4 20.5
22:50 1023 30.21 852 25.16 2.4 36.3 51 -6.7 19.9
22:55 1023 30.21 852 25.16 2.6 36.7 49 -7 19.4
23:00 1023 30.21 852 25.16 2.8 37.1 49 -7 19.4
23:05 1023 30.21 852 25.16 2.9 37.2 49 -6.9 19.5
23:10 1023 30.21 852 25.16 2.8 37.1 50 -6.5 20.3
23:15 1022 30.18 852 25.16 2.7 36.9 52 -6.2 20.9
23:20 1022 30.18 852 25.16 2.6 36.6 52 -6.2 20.8
23:25 1022 30.18 852 25.16 2.5 36.5 54 -6 21.2
23:30 1022 30.18 852 25.16 2.4 36.3 54 -6 21.3
23:35 1022 30.18 852 25.16 2.3 36.2 54 -6 21.3
23:40 1022 30.18 852 25.16 2.4 36.3 54 -5.9 21.3
23:45 1022 30.18 852 25.16 2.4 36.3 54 -5.9 21.4
23:50 1022 30.18 852 25.16 2.4 36.3 57 -5.3 22.5
23:55 1022 30.18 852 25.16 2.3 36.1 58 -5.2 22.6
24:00 1022 30.18 852 25.16 2.2 35.9 59 -5.1 22.9